Time;durP1;ratioP1;P1;durP2;ratioP2;P2;SDS_P1;SDS_P2;PMS_P1;PMS_P2;Temp;Humidity;BMP_temperature;BMP_pressure;BME280_temperature;BME280_humidity;BME280_pressure;Samples;Min_cycle;Max_cycle;Signal;HPM_P1;HPM_P2
2022/12/08 00:01:46;;;;;;;;;;;;;;;21.81;40.26;94906.16;6093230;19;2084;-64
2022/12/08 00:03:50;;;;;;;;;;;;;;;21.85;40.20;94904.69;6122149;19;1902;-64
2022/12/08 00:10:26;;;;;;;;;;;;;;;21.90;39.94;94914.69;6118897;19;1850;-64
2022/12/08 00:12:29;;;;;;;;;;;;;;;21.86;39.93;94918.88;6099865;19;1912;-63
2022/12/08 00:14:36;;;;;;;;;;;;;;;21.86;39.80;94937.59;6115689;19;1920;-64
2022/12/08 00:16:40;;;;;;;;;;;;;;;21.88;39.99;94939.00;6119569;19;1965;-64
2022/12/08 00:18:43;;;;;;;;;;;;;;;21.78;40.13;94937.88;6120811;19;2119;-64
2022/12/08 00:20:46;;;;;;;;;;;;;;;21.84;39.71;94942.34;6117813;19;1984;-65
2022/12/08 00:22:50;;;;;;;;;;;;;;;21.86;39.68;94949.09;6119924;19;2115;-64
2022/12/08 00:24:53;;;;;;;;;;;;;;;21.84;39.75;94942.34;6092590;19;2119;-64
2022/12/08 00:26:56;;;;;;;;;;;;;;;21.87;39.94;94947.25;6120700;19;1949;-64
2022/12/08 00:28:59;;;;;;;;;;;;;;;21.85;40.11;94951.97;6120922;19;1958;-64
2022/12/08 00:31:11;;;;;;;;;;;;;;;21.88;39.54;94951.53;6118350;19;1939;-64
2022/12/08 00:33:14;;;;;;;;;;;;;;;21.87;39.82;94955.25;6119831;19;1873;-64
2022/12/08 00:35:18;;;;;;;;;;;;;;;21.83;39.89;94954.91;6104522;19;2223;-64
2022/12/08 00:37:21;;;;;;;;;;;;;;;21.84;39.86;94955.72;6113037;19;2505;-64
2022/12/08 00:39:24;;;;;;;;;;;;;;;21.85;39.63;94958.19;6117713;19;1034;-65
2022/12/08 00:43:44;;;;;;;;;;;;;;;21.85;39.73;94947.47;6118186;19;2561;-63
2022/12/08 00:45:47;;;;;;;;;;;;;;;21.85;39.71;94951.97;6117677;19;1919;-63
2022/12/08 00:47:53;;;;;;;;;;;;;;;21.85;39.79;94957.34;6091591;19;2106;-62
2022/12/08 00:49:56;;;;;;;;;;;;;;;21.83;39.68;94962.09;6122727;19;1932;-64
2022/12/08 00:51:59;;;;;;;;;;;;;;;21.82;39.53;94955.91;6122937;19;2074;-64
2022/12/08 00:54:03;;;;;;;;;;;;;;;21.84;39.42;94950.34;6124824;19;1899;-64
2022/12/08 00:56:06;;;;;;;;;;;;;;;21.83;39.44;94973.63;6125562;19;1919;-64
2022/12/08 00:58:09;;;;;;;;;;;;;;;21.86;39.32;94969.69;6111249;19;2088;-64
2022/12/08 01:00:13;;;;;;;;;;;;;;;21.84;39.92;94963.72;6099559;19;2155;-64
2022/12/08 01:02:17;;;;;;;;;;;;;;;21.86;39.67;94964.34;6128075;19;1915;-64
2022/12/08 01:04:23;;;;;;;;;;;;;;;21.84;39.64;94975.25;6127958;19;1881;-64
2022/12/08 01:06:26;;;;;;;;;;;;;;;21.78;39.66;94972.63;6126215;19;1867;-64
2022/12/08 01:08:29;;;;;;;;;;;;;;;21.78;39.64;94967.28;6127287;19;1843;-64
2022/12/08 01:10:32;;;;;;;;;;;;;;;21.79;39.82;94959.03;6097495;19;2017;-64
2022/12/08 01:12:36;;;;;;;;;;;;;;;21.83;39.72;94952.22;6122050;19;1906;-64
2022/12/08 01:14:39;;;;;;;;;;;;;;;21.82;39.78;94947.88;6125487;19;1930;-65
2022/12/08 01:16:43;;;;;;;;;;;;;;;21.81;39.63;94961.50;6126551;19;1943;-63
2022/12/08 01:18:46;;;;;;;;;;;;;;;21.80;39.57;94965.22;6122848;19;2120;-63
2022/12/08 01:20:52;;;;;;;;;;;;;;;21.78;39.49;94957.41;6112166;19;1924;-63
2022/12/08 01:22:55;;;;;;;;;;;;;;;21.80;39.45;94970.56;6108766;19;2288;-63
2022/12/08 01:25:00;;;;;;;;;;;;;;;21.82;39.34;94973.81;6122312;19;1044;-64
2022/12/08 01:27:03;;;;;;;;;;;;;;;21.80;39.29;94962.53;6121798;19;2085;-64
2022/12/08 01:29:08;;;;;;;;;;;;;;;21.81;39.21;94973.00;6122486;19;1915;-64
2022/12/08 01:31:12;;;;;;;;;;;;;;;21.84;39.53;94974.44;6122254;19;1975;-64
2022/12/08 01:33:16;;;;;;;;;;;;;;;21.81;39.45;94972.19;6097518;19;1933;-64
2022/12/08 01:35:19;;;;;;;;;;;;;;;21.84;39.54;94955.72;6121276;19;2136;-64
2022/12/08 01:37:25;;;;;;;;;;;;;;;21.82;39.59;94950.56;6122746;19;1858;-64
2022/12/08 01:39:28;;;;;;;;;;;;;;;21.80;39.46;94958.00;6125306;19;2068;-64
2022/12/08 01:41:32;;;;;;;;;;;;;;;21.81;39.36;94951.63;6124963;19;2087;-64
2022/12/08 01:43:48;;;;;;;;;;;;;;;21.81;39.41;94942.78;6123250;19;1915;-64
2022/12/08 01:45:51;;;;;;;;;;;;;;;21.81;39.19;94938.25;6108260;19;2044;-64
2022/12/08 01:47:58;;;;;;;;;;;;;;;21.77;39.50;94944.25;6122420;19;2108;-64
2022/12/08 01:50:01;;;;;;;;;;;;;;;21.81;39.56;94950.81;6121575;19;1948;-64
2022/12/08 01:52:11;;;;;;;;;;;;;;;21.76;39.18;94940.75;6122484;19;2105;-63
2022/12/08 01:54:17;;;;;;;;;;;;;;;21.77;39.38;94931.72;6123910;19;2098;-63
2022/12/08 01:56:23;;;;;;;;;;;;;;;21.80;39.14;94923.25;6096331;19;2416;-64
2022/12/08 01:58:28;;;;;;;;;;;;;;;21.81;39.35;94918.69;6123075;19;2088;-64
2022/12/08 02:00:34;;;;;;;;;;;;;;;21.78;39.22;94913.81;6124704;19;1910;-64
2022/12/08 02:02:41;;;;;;;;;;;;;;;21.73;39.04;94924.34;6125033;19;1962;-64
2022/12/08 02:04:44;;;;;;;;;;;;;;;21.76;39.61;94915.88;6126649;19;2084;-64
2022/12/08 02:06:49;;;;;;;;;;;;;;;21.75;39.61;94909.72;6109026;19;2121;-61
2022/12/08 02:08:54;;;;;;;;;;;;;;;21.75;39.63;94920.41;6108124;19;1936;-60
2022/12/08 02:10:59;;;;;;;;;;;;;;;21.82;39.48;94914.97;6121201;19;1837;-60
2022/12/08 02:13:04;;;;;;;;;;;;;;;21.81;39.39;94916.03;6122357;19;1863;-60
2022/12/08 02:15:08;;;;;;;;;;;;;;;21.81;39.08;94921.38;6125957;19;1984;-60
2022/12/08 02:17:18;;;;;;;;;;;;;;;21.79;39.21;94918.09;6123449;19;1934;-59
2022/12/08 02:19:38;;;;;;;;;;;;;;;21.83;39.19;94908.63;6098012;19;1937;-59
2022/12/08 02:21:46;;;;;;;;;;;;;;;21.77;39.28;94917.50;6124346;19;1954;-59
2022/12/08 02:23:55;;;;;;;;;;;;;;;21.76;39.91;94921.22;6125394;19;1913;-59
2022/12/08 02:26:18;;;;;;;;;;;;;;;21.79;39.52;94923.44;6124847;19;1919;-60
2022/12/08 02:28:34;;;;;;;;;;;;;;;21.78;39.50;94919.16;6122751;19;2168;-59
2022/12/08 02:30:45;;;;;;;;;;;;;;;21.80;39.44;94917.06;6095326;19;2106;-60
2022/12/08 02:33:03;;;;;;;;;;;;;;;21.80;39.47;94911.72;6122332;19;2246;-59
2022/12/08 02:35:12;;;;;;;;;;;;;;;21.81;39.64;94911.50;6124275;19;2094;-60
2022/12/08 02:37:19;;;;;;;;;;;;;;;21.84;39.27;94919.06;6123515;19;1951;-61
2022/12/08 02:39:33;;;;;;;;;;;;;;;21.82;39.35;94929.16;6123252;19;1850;-60
2022/12/08 02:41:41;;;;;;;;;;;;;;;21.80;39.46;94928.59;6109063;19;1877;-61
2022/12/08 02:43:45;;;;;;;;;;;;;;;21.81;39.54;94930.22;6111865;19;2230;-63
2022/12/08 02:45:50;;;;;;;;;;;;;;;21.80;39.41;94927.78;6121511;19;2090;-64
2022/12/08 02:47:54;;;;;;;;;;;;;;;21.81;39.51;94934.75;6121748;19;2059;-65
2022/12/08 02:49:58;;;;;;;;;;;;;;;21.77;39.27;94928.19;6120625;19;1857;-63
2022/12/08 02:52:22;;;;;;;;;;;;;;;21.77;39.61;94929.03;6122891;19;1691;-62
2022/12/08 02:54:28;;;;;;;;;;;;;;;21.77;39.59;94913.00;6094277;19;1928;-63
2022/12/08 02:56:47;;;;;;;;;;;;;;;21.80;39.48;94909.06;6119627;19;2129;-63
2022/12/08 02:58:58;;;;;;;;;;;;;;;21.76;39.50;94914.00;6122443;19;2206;-63
2022/12/08 03:01:12;;;;;;;;;;;;;;;21.82;39.69;94913.13;6123192;19;2122;-62
2022/12/08 03:03:20;;;;;;;;;;;;;;;21.78;39.69;94919.16;6121207;19;2087;-62
2022/12/08 03:05:30;;;;;;;;;;;;;;;21.79;39.66;94916.25;6094212;19;2046;-63
2022/12/08 03:07:37;;;;;;;;;;;;;;;21.81;39.55;94935.56;6122659;19;2082;-64
2022/12/08 03:09:48;;;;;;;;;;;;;;;21.77;39.48;94929.03;6122180;19;2247;-63
2022/12/08 03:11:54;;;;;;;;;;;;;;;21.80;39.41;94914.41;6119092;19;1981;-63
2022/12/08 03:13:59;;;;;;;;;;;;;;;21.76;39.50;94922.03;6124307;19;1941;-63
2022/12/08 03:16:03;;;;;;;;;;;;;;;21.79;39.48;94912.75;6108495;19;2032;-63
2022/12/08 03:18:08;;;;;;;;;;;;;;;21.76;39.38;94911.34;6107326;19;1826;-62
2022/12/08 03:20:13;;;;;;;;;;;;;;;21.78;39.68;94916.47;6120472;19;2142;-63
2022/12/08 03:22:18;;;;;;;;;;;;;;;21.77;39.45;94925.53;6121542;19;1655;-63
2022/12/08 03:24:24;;;;;;;;;;;;;;;21.80;39.77;94912.53;6122040;19;2174;-63
2022/12/08 03:26:33;;;;;;;;;;;;;;;21.73;39.62;94909.09;6120943;19;2020;-64
2022/12/08 03:28:36;;;;;;;;;;;;;;;21.77;39.55;94909.47;6096145;19;2111;-63
2022/12/08 03:30:41;;;;;;;;;;;;;;;21.79;39.50;94904.72;6121745;19;2029;-63
2022/12/08 03:32:46;;;;;;;;;;;;;;;21.79;39.67;94902.88;6123364;19;1832;-63
2022/12/08 03:34:52;;;;;;;;;;;;;;;21.81;39.45;94910.69;6119705;19;1923;-63
2022/12/08 03:36:56;;;;;;;;;;;;;;;21.80;39.13;94919.75;6120930;19;2122;-63
2022/12/08 03:38:59;;;;;;;;;;;;;;;21.79;39.41;94910.88;6109042;19;1955;-63
2022/12/08 03:43:21;;;;;;;;;;;;;;;21.81;39.43;94916.84;6122229;19;1932;-64
2022/12/08 03:45:24;;;;;;;;;;;;;;;21.82;39.39;94918.47;6119454;19;978;-63
2022/12/08 03:47:27;;;;;;;;;;;;;;;21.79;39.61;94915.44;6119065;19;1653;-64
2022/12/08 03:49:30;;;;;;;;;;;;;;;21.77;39.95;94915.66;6122311;19;2065;-66
2022/12/08 03:51:34;;;;;;;;;;;;;;;21.74;39.59;94917.94;6092819;19;2141;-63
2022/12/08 03:53:37;;;;;;;;;;;;;;;21.79;39.56;94920.78;6121131;19;1899;-68
2022/12/08 03:55:42;;;;;;;;;;;;;;;21.79;39.91;94918.91;6119513;19;1124;-64
2022/12/08 03:57:45;;;;;;;;;;;;;;;21.80;40.01;94928.59;6123062;19;1676;-64
2022/12/08 03:59:51;;;;;;;;;;;;;;;21.80;39.68;94922.44;6120282;19;1973;-63
2022/12/08 04:01:54;;;;;;;;;;;;;;;21.83;39.70;94922.78;6110347;19;2089;-67
2022/12/08 04:03:57;;;;;;;;;;;;;;;21.87;39.50;94915.13;6106509;19;1835;-68
2022/12/08 04:06:01;;;;;;;;;;;;;;;21.89;39.65;94927.25;6120660;19;1912;-65
2022/12/08 04:08:04;;;;;;;;;;;;;;;21.86;39.82;94932.25;6117491;19;2125;-63
2022/12/08 04:10:08;;;;;;;;;;;;;;;21.86;39.23;94930.38;6116743;19;1360;-63
2022/12/08 04:12:11;;;;;;;;;;;;;;;21.89;39.11;94927.25;6119064;19;1966;-63
2022/12/08 04:14:15;;;;;;;;;;;;;;;17.66;36.09;94936.59;6096513;19;1924;-63
2022/12/08 04:16:23;;;;;;;;;;;;;;;16.58;37.13;94929.75;6120233;19;2142;-64
2022/12/08 04:18:26;;;;;;;;;;;;;;;16.05;36.33;94938.75;6122954;19;1926;-63
2022/12/08 04:20:30;;;;;;;;;;;;;;;13.53;38.75;94931.72;6122511;19;1943;-63
2022/12/08 04:22:33;;;;;;;;;;;;;;;13.58;39.42;94942.59;6119780;19;1923;-63
2022/12/08 04:24:36;;;;;;;;;;;;;;;14.61;37.59;94936.31;6110179;19;2907;-63
2022/12/08 04:26:40;;;;;;;;;;;;;;;11.91;40.76;94928.81;6106530;19;2295;-64
2022/12/08 04:28:43;;;;;;;;;;;;;;;12.75;39.97;94929.66;6121349;19;1913;-64
2022/12/08 04:30:46;;;;;;;;;;;;;;;13.73;38.21;94940.06;6120200;19;1842;-63
2022/12/08 04:32:52;;;;;;;;;;;;;;;12.36;39.52;94933.72;6119482;19;2089;-63
2022/12/08 04:34:55;;;;;;;;;;;;;;;14.11;38.88;94934.94;6122437;19;1952;-62
2022/12/08 04:36:59;;;;;;;;;;;;;;;16.42;37.03;94930.84;6094558;19;1877;-61
2022/12/08 04:39:02;;;;;;;;;;;;;;;17.83;35.44;94932.63;6120393;19;2270;-62
2022/12/08 04:41:05;;;;;;;;;;;;;;;18.67;34.51;94944.06;6120081;19;1542;-62
2022/12/08 04:43:09;;;;;;;;;;;;;;;19.14;33.91;94931.63;6121737;19;1810;-62
2022/12/08 04:45:15;;;;;;;;;;;;;;;19.49;33.60;94932.25;6117454;19;1061;-61
2022/12/08 04:47:19;;;;;;;;;;;;;;;19.73;33.30;94948.63;6119415;19;2108;-61
2022/12/08 04:49:25;;;;;;;;;;;;;;;19.92;33.91;94941.59;6092210;19;2164;-62
2022/12/08 04:51:28;;;;;;;;;;;;;;;20.06;33.53;94932.53;6118804;19;2189;-62
2022/12/08 04:53:32;;;;;;;;;;;;;;;20.13;33.30;94938.69;6120027;19;1910;-62
2022/12/08 04:55:35;;;;;;;;;;;;;;;20.23;33.33;94933.75;6119510;19;1879;-62
2022/12/08 04:57:38;;;;;;;;;;;;;;;20.30;33.49;94945.19;6117740;19;1920;-61
2022/12/08 04:59:42;;;;;;;;;;;;;;;20.39;33.64;94935.13;6106634;19;2117;-62
2022/12/08 05:01:45;;;;;;;;;;;;;;;20.49;33.96;94937.34;6104321;19;2086;-63
2022/12/08 05:03:48;;;;;;;;;;;;;;;20.51;34.04;94940.59;6117817;19;2072;-62
2022/12/08 05:05:54;;;;;;;;;;;;;;;20.51;33.69;94935.25;6118509;19;1940;-63
2022/12/08 05:07:57;;;;;;;;;;;;;;;20.53;33.96;94946.56;6119939;19;2031;-61
2022/12/08 05:10:01;;;;;;;;;;;;;;;20.54;33.88;94942.84;6116328;19;1332;-63
2022/12/08 05:12:04;;;;;;;;;;;;;;;20.57;33.90;94939.75;6089213;19;2122;-63
2022/12/08 05:14:07;;;;;;;;;;;;;;;20.62;34.08;94941.78;6119195;19;1984;-63
2022/12/08 05:16:11;;;;;;;;;;;;;;;20.64;33.89;94945.06;6119745;19;1891;-62
2022/12/08 05:18:15;;;;;;;;;;;;;;;20.65;34.26;94950.19;6118591;19;1659;-63
2022/12/08 05:20:18;;;;;;;;;;;;;;;20.69;34.20;94953.28;6115284;19;1696;-62
2022/12/08 05:22:24;;;;;;;;;;;;;;;20.71;34.01;94946.66;6104210;19;1313;-62
2022/12/08 05:24:28;;;;;;;;;;;;;;;20.74;34.08;94951.59;6104483;19;1543;-62
2022/12/08 05:26:31;;;;;;;;;;;;;;;20.74;34.11;94954.28;6117960;19;1058;-62
2022/12/08 05:28:35;;;;;;;;;;;;;;;20.76;34.10;94949.50;6116236;19;1124;-63
2022/12/08 05:30:38;;;;;;;;;;;;;;;20.79;34.04;94958.94;6118449;19;1005;-62
2022/12/08 05:32:41;;;;;;;;;;;;;;;20.79;34.05;94957.09;6115755;19;1853;-62
2022/12/08 05:34:45;;;;;;;;;;;;;;;20.82;34.17;94957.69;6088485;19;1388;-62
2022/12/08 05:36:48;;;;;;;;;;;;;;;20.85;34.05;94970.63;6118643;19;1033;-62
2022/12/08 05:38:54;;;;;;;;;;;;;;;20.85;34.30;94968.75;6118118;19;974;-62
2022/12/08 05:40:57;;;;;;;;;;;;;;;20.84;34.23;94960.97;6120821;19;1114;-62
2022/12/08 05:43:00;;;;;;;;;;;;;;;20.88;34.05;94962.19;6121006;19;2012;-62
2022/12/08 05:45:04;;;;;;;;;;;;;;;20.89;34.18;94966.50;6106344;19;1105;-62
2022/12/08 05:47:07;;;;;;;;;;;;;;;20.89;34.19;94985.19;6104424;19;2095;-62
2022/12/08 05:49:10;;;;;;;;;;;;;;;20.92;34.07;94974.09;6118435;19;1132;-62
2022/12/08 05:51:18;;;;;;;;;;;;;;;20.94;34.25;94980.00;6121698;19;1853;-62
2022/12/08 05:53:22;;;;;;;;;;;;;;;20.92;34.06;94977.56;6121730;19;1472;-62
2022/12/08 05:55:28;;;;;;;;;;;;;;;20.91;34.15;94978.59;6123294;19;1034;-61
2022/12/08 05:57:31;;;;;;;;;;;;;;;20.91;34.86;94961.75;6095465;19;2101;-63
2022/12/08 05:59:34;;;;;;;;;;;;;;;20.95;35.21;94962.97;6121304;19;1136;-63
2022/12/08 06:01:37;;;;;;;;;;;;;;;21.01;34.93;94964.78;6121275;19;983;-63
2022/12/08 06:03:41;;;;;;;;;;;;;;;21.02;34.66;94974.41;6122188;19;1278;-63
2022/12/08 06:05:45;;;;;;;;;;;;;;;21.06;34.56;94975.66;6120813;19;1019;-63
2022/12/08 06:07:48;;;;;;;;;;;;;;;21.06;34.48;94975.66;6110299;19;1186;-63
2022/12/08 06:09:52;;;;;;;;;;;;;;;21.05;34.90;94968.66;6107441;19;1750;-63
2022/12/08 06:11:58;;;;;;;;;;;;;;;21.06;35.40;94972.97;6122025;19;1869;-62
2022/12/08 06:14:02;;;;;;;;;;;;;;;21.11;35.07;94967.78;6123404;19;950;-62
2022/12/08 06:16:06;;;;;;;;;;;;;;;21.12;34.69;94964.09;6120177;19;1214;-62
2022/12/08 06:18:11;;;;;;;;;;;;;;;21.14;34.53;94980.72;6123105;19;958;-62
2022/12/08 06:20:14;;;;;;;;;;;;;;;21.12;34.81;94990.00;6094191;19;1954;-62
2022/12/08 06:22:19;;;;;;;;;;;;;;;21.15;34.71;94987.69;6121074;19;1034;-62
2022/12/08 06:24:22;;;;;;;;;;;;;;;21.16;34.54;94996.53;6120389;19;1033;-60
2022/12/08 06:26:25;;;;;;;;;;;;;;;21.17;35.03;94995.47;6120937;19;970;-61
2022/12/08 06:28:32;;;;;;;;;;;;;;;21.17;35.37;95004.38;6122673;19;1107;-60
2022/12/08 06:30:35;;;;;;;;;;;;;;;21.17;35.42;94999.03;6109319;19;1210;-61
2022/12/08 06:32:38;;;;;;;;;;;;;;;21.20;35.53;95009.28;6107779;19;1989;-61
2022/12/08 06:34:42;;;;;;;;;;;;;;;21.19;35.54;95018.31;6120417;19;1069;-61
2022/12/08 06:36:45;;;;;;;;;;;;;;;21.21;35.33;94999.41;6122381;19;1061;-61
2022/12/08 06:38:52;;;;;;;;;;;;;;;21.23;35.51;95003.50;6120027;19;970;-61
2022/12/08 06:40:56;;;;;;;;;;;;;;;21.22;35.16;95014.41;6120843;19;1044;-60
2022/12/08 06:42:59;;;;;;;;;;;;;;;21.28;35.03;95007.38;6094015;19;1665;-60
2022/12/08 06:45:05;;;;;;;;;;;;;;;21.28;35.33;94994.00;6120160;19;1038;-61
2022/12/08 06:47:09;;;;;;;;;;;;;;;21.27;35.55;95008.41;6117392;19;1117;-60
2022/12/08 06:49:12;;;;;;;;;;;;;;;21.30;35.30;94995.44;6120173;19;1354;-60
2022/12/08 06:51:18;;;;;;;;;;;;;;;21.30;35.40;94986.59;6119684;19;1113;-60
2022/12/08 06:53:21;;;;;;;;;;;;;;;21.32;35.72;94995.22;6106588;19;1890;-60
2022/12/08 06:55:24;;;;;;;;;;;;;;;21.32;35.77;94985.34;6108658;19;2031;-60
2022/12/08 06:57:28;;;;;;;;;;;;;;;21.34;35.61;94993.13;6120008;19;1056;-60
2022/12/08 06:59:31;;;;;;;;;;;;;;;21.31;35.88;94991.72;6121670;19;1121;-62
2022/12/08 07:01:37;;;;;;;;;;;;;;;21.34;35.80;94982.44;6119212;19;1041;-62
2022/12/08 07:03:42;;;;;;;;;;;;;;;21.36;35.96;94991.09;6120194;19;1558;-62
2022/12/08 07:05:45;;;;;;;;;;;;;;;21.37;35.89;94998.91;6093274;19;2118;-64
2022/12/08 07:07:48;;;;;;;;;;;;;;;21.39;35.61;94985.28;6119280;19;966;-64
2022/12/08 07:09:52;;;;;;;;;;;;;;;21.38;35.51;94989.00;6119626;19;1357;-64
2022/12/08 07:11:55;;;;;;;;;;;;;;;21.38;35.35;94999.72;6119962;19;1841;-68
2022/12/08 07:13:58;;;;;;;;;;;;;;;21.40;35.64;94998.47;6121698;19;982;-67
2022/12/08 07:16:02;;;;;;;;;;;;;;;21.37;35.58;94998.91;6106225;19;1322;-63
2022/12/08 07:18:08;;;;;;;;;;;;;;;21.42;35.49;95006.25;6106396;19;2138;-63
2022/12/08 07:20:11;;;;;;;;;;;;;;;21.39;35.26;95012.84;6119747;19;987;-62
2022/12/08 07:22:14;;;;;;;;;;;;;;;21.37;35.54;95008.75;6118751;19;1163;-62
2022/12/08 07:24:19;;;;;;;;;;;;;;;21.38;35.09;95010.41;6119492;19;1117;-62
2022/12/08 07:26:23;;;;;;;;;;;;;;;21.36;35.30;95015.13;6119289;19;1092;-63
2022/12/08 07:28:26;;;;;;;;;;;;;;;21.37;34.92;95017.59;6093460;19;1820;-67
2022/12/08 07:30:29;;;;;;;;;;;;;;;21.38;34.91;95026.44;6120151;19;1062;-66
2022/12/08 07:32:33;;;;;;;;;;;;;;;21.35;35.28;95029.53;6119793;19;1853;-65
2022/12/08 07:34:39;;;;;;;;;;;;;;;21.37;35.09;95028.28;6118867;19;1074;-63
2022/12/08 07:36:42;;;;;;;;;;;;;;;21.36;34.78;95028.50;6119189;19;1054;-63
2022/12/08 07:38:45;;;;;;;;;;;;;;;21.36;35.07;95042.66;6105918;19;1344;-63
2022/12/08 07:40:48;;;;;;;;;;;;;;;21.34;34.96;95041.25;6105689;19;2420;-63
2022/12/08 07:42:52;;;;;;;;;;;;;;;21.37;34.64;95040.81;6120311;19;1133;-63
2022/12/08 07:44:57;;;;;;;;;;;;;;;21.35;35.09;95048.25;6118652;19;994;-65
2022/12/08 07:47:00;;;;;;;;;;;;;;;21.41;35.11;95039.38;6120313;19;977;-66
2022/12/08 07:49:03;;;;;;;;;;;;;;;21.35;34.95;95027.69;6119966;19;1038;-64
2022/12/08 07:51:10;;;;;;;;;;;;;;;21.39;35.13;95034.22;6092447;19;2195;-64
2022/12/08 07:53:13;;;;;;;;;;;;;;;21.36;34.79;95036.50;6118345;19;1849;-64
2022/12/08 07:55:16;;;;;;;;;;;;;;;21.36;35.01;95042.66;6119128;19;982;-64
2022/12/08 07:57:20;;;;;;;;;;;;;;;21.38;34.74;95034.44;6119084;19;1053;-64
2022/12/08 07:59:23;;;;;;;;;;;;;;;21.37;35.24;95030.97;6117073;19;1062;-63
2022/12/08 08:01:28;;;;;;;;;;;;;;;21.37;35.10;95030.13;6105795;19;1279;-63
2022/12/08 08:03:33;;;;;;;;;;;;;;;21.38;35.51;95031.78;6106335;19;2173;-64
2022/12/08 08:05:36;;;;;;;;;;;;;;;21.39;35.02;95036.09;6118505;19;1165;-63
2022/12/08 08:07:43;;;;;;;;;;;;;;;21.39;35.13;95038.75;6117547;19;1125;-63
2022/12/08 08:09:46;;;;;;;;;;;;;;;21.43;35.57;95042.66;6118671;19;1566;-63
2022/12/08 08:11:50;;;;;;;;;;;;;;;21.39;35.67;95044.09;6118343;19;1070;-63
2022/12/08 08:13:54;;;;;;;;;;;;;;;21.38;35.72;95039.81;6092326;19;2125;-63
2022/12/08 08:16:04;;;;;;;;;;;;;;;21.38;35.80;95037.13;6119280;19;1116;-63
2022/12/08 08:18:07;;;;;;;;;;;;;;;21.41;35.37;95042.03;6120007;19;1013;-63
2022/12/08 08:20:11;;;;;;;;;;;;;;;21.43;35.28;95048.00;6118647;19;1375;-63
2022/12/08 08:22:14;;;;;;;;;;;;;;;21.43;35.63;95039.97;6117698;19;1037;-63
2022/12/08 08:24:21;;;;;;;;;;;;;;;21.45;35.60;95035.22;6103462;19;2067;-63
2022/12/08 08:26:24;;;;;;;;;;;;;;;21.46;35.82;95031.53;6114433;19;2140;-63
2022/12/08 08:28:27;;;;;;;;;;;;;;;21.51;35.63;95041.53;6119340;19;882;-63
2022/12/08 08:30:30;;;;;;;;;;;;;;;21.49;35.30;95047.13;6117378;19;1037;-63
2022/12/08 08:32:34;;;;;;;;;;;;;;;21.52;35.22;95045.88;6117452;19;1855;-64
2022/12/08 08:34:38;;;;;;;;;;;;;;;21.50;35.11;95043.41;6117346;19;1128;-63
2022/12/08 08:36:41;;;;;;;;;;;;;;;21.47;35.66;95041.16;6091280;19;2048;-62
2022/12/08 08:38:44;;;;;;;;;;;;;;;21.51;35.46;95039.69;6119306;19;1033;-62
2022/12/08 08:40:50;;;;;;;;;;;;;;;21.50;35.56;95040.72;6117515;19;1140;-63
2022/12/08 08:42:53;;;;;;;;;;;;;;;21.57;35.11;95032.66;6119039;19;1050;-62
2022/12/08 08:44:57;;;;;;;;;;;;;;;21.55;35.33;95030.22;6118617;19;1017;-63
2022/12/08 08:47:00;;;;;;;;;;;;;;;21.47;35.38;95030.47;6104886;19;1509;-60
2022/12/08 08:49:03;;;;;;;;;;;;;;;21.49;35.50;95028.41;6110051;19;2114;-65
2022/12/08 08:51:10;;;;;;;;;;;;;;;21.50;35.43;95027.38;6116812;19;1974;-68
2022/12/08 08:53:13;;;;;;;;;;;;;;;21.53;35.52;95026.94;6118601;19;1857;-66
2022/12/08 08:55:17;;;;;;;;;;;;;;;21.52;35.47;95030.66;6117371;19;1002;-67
2022/12/08 08:57:23;;;;;;;;;;;;;;;21.54;35.20;95031.25;6117696;19;1045;-64
2022/12/08 08:59:26;;;;;;;;;;;;;;;20.35;34.39;95021.94;6090735;19;1744;-68
2022/12/08 09:01:30;;;;;;;;;;;;;;;20.60;35.18;95023.94;6118868;19;1143;-68
2022/12/08 09:03:33;;;;;;;;;;;;;;;21.02;34.90;95022.50;6118661;19;1029;-68
2022/12/08 09:05:36;;;;;;;;;;;;;;;21.29;34.99;95017.03;6119094;19;1028;-68
2022/12/08 09:07:39;;;;;;;;;;;;;;;21.39;34.66;95023.53;6116482;19;991;-68
2022/12/08 09:09:43;;;;;;;;;;;;;;;21.45;34.73;95019.16;6093844;19;1247;-68
2022/12/08 09:11:46;;;;;;;;;;;;;;;21.46;34.65;95010.13;6124355;19;1128;-68
2022/12/08 09:13:53;;;;;;;;;;;;;;;21.48;34.96;95009.91;6122071;19;1865;-68
2022/12/08 09:15:56;;;;;;;;;;;;;;;21.49;34.96;95006.22;6124890;19;947;-68
2022/12/08 09:18:00;;;;;;;;;;;;;;;21.53;34.88;95002.88;6124304;19;993;-67
2022/12/08 09:20:03;;;;;;;;;;;;;;;21.55;34.70;94997.31;6122738;19;1622;-66
2022/12/08 09:22:07;;;;;;;;;;;;;;;21.58;34.80;94999.56;6095433;19;2364;-68
2022/12/08 09:24:14;;;;;;;;;;;;;;;21.58;34.62;94999.56;6124332;19;1026;-67
2022/12/08 09:26:21;;;;;;;;;;;;;;;21.55;35.32;94994.66;6124315;19;1022;-64
2022/12/08 09:28:24;;;;;;;;;;;;;;;21.55;35.02;94992.78;6123960;19;1044;-64
2022/12/08 09:30:30;;;;;;;;;;;;;;;21.61;34.78;94989.22;6122120;19;1066;-63
2022/12/08 09:32:33;;;;;;;;;;;;;;;19.96;33.78;94985.50;6098428;19;2185;-63
2022/12/08 09:34:36;;;;;;;;;;;;;;;18.39;34.61;94990.19;6123721;19;2336;-62
2022/12/08 09:36:40;;;;;;;;;;;;;;;17.79;34.91;94978.44;6121226;19;1059;-63
2022/12/08 09:38:43;;;;;;;;;;;;;;;17.80;34.66;94988.03;6121916;19;1070;-63
2022/12/08 09:40:50;;;;;;;;;;;;;;;17.50;35.02;94990.88;6122047;19;1041;-62
2022/12/08 09:42:56;;;;;;;;;;;;;;;17.25;34.65;94979.03;6121486;19;986;-62
2022/12/08 09:45:02;;;;;;;;;;;;;;;17.20;34.73;94975.09;6099316;19;1717;-63
2022/12/08 09:47:15;;;;;;;;;;;;;;;16.87;35.42;94981.91;6124396;19;954;-62
2022/12/08 09:49:20;;;;;;;;;;;;;;;16.56;35.43;94985.66;6121404;19;1970;-62
2022/12/08 09:51:25;;;;;;;;;;;;;;;16.39;35.77;94985.06;6120646;19;1159;-62
2022/12/08 09:53:29;;;;;;;;;;;;;;;16.57;36.07;94986.47;6121547;19;1990;-62
2022/12/08 09:55:39;;;;;;;;;;;;;;;17.06;35.82;94975.97;6095889;19;2096;-62
2022/12/08 09:57:42;;;;;;;;;;;;;;;18.50;34.38;94978.97;6121349;19;1271;-63
2022/12/08 09:59:46;;;;;;;;;;;;;;;19.48;33.41;94977.75;6121728;19;958;-64
2022/12/08 10:01:50;;;;;;;;;;;;;;;20.07;31.91;94977.69;6121309;19;1132;-67
2022/12/08 10:03:56;;;;;;;;;;;;;;;20.43;31.64;94967.53;6121099;19;1290;-67
2022/12/08 10:06:04;;;;;;;;;;;;;;;20.69;31.75;94958.59;6110276;19;1330;-67
2022/12/08 10:08:12;;;;;;;;;;;;;;;20.94;31.57;94950.63;6110246;19;1646;-68
2022/12/08 10:10:21;;;;;;;;;;;;;;;21.10;31.55;94942.09;6121998;19;1331;-68
2022/12/08 10:12:29;;;;;;;;;;;;;;;21.22;31.47;94943.06;6123148;19;1013;-68
2022/12/08 10:14:36;;;;;;;;;;;;;;;21.35;31.13;94946.69;6121288;19;1852;-68
2022/12/08 10:16:42;;;;;;;;;;;;;;;21.48;31.58;94935.06;6121562;19;1076;-68
2022/12/08 10:18:45;;;;;;;;;;;;;;;21.54;31.34;94939.53;6095267;19;2238;-67
2022/12/08 10:20:52;;;;;;;;;;;;;;;21.62;31.47;94937.38;6120834;19;1271;-68
2022/12/08 10:23:03;;;;;;;;;;;;;;;21.64;31.78;94940.66;6120959;19;1019;-68
2022/12/08 10:25:09;;;;;;;;;;;;;;;21.73;31.69;94933.19;6122996;19;1119;-68
2022/12/08 10:27:13;;;;;;;;;;;;;;;21.77;31.47;94934.38;6122439;19;1062;-68
2022/12/08 10:29:17;;;;;;;;;;;;;;;21.82;31.92;94941.72;6096956;19;2326;-68
2022/12/08 10:31:22;;;;;;;;;;;;;;;21.89;31.90;94931.78;6122899;19;1313;-63
2022/12/08 10:33:27;;;;;;;;;;;;;;;21.91;31.50;94929.72;6120550;19;1848;-61
2022/12/08 10:35:43;;;;;;;;;;;;;;;21.94;31.63;94929.28;6120189;19;1025;-60
2022/12/08 10:37:56;;;;;;;;;;;;;;;21.98;31.67;94929.69;6122803;19;1064;-59
2022/12/08 10:40:03;;;;;;;;;;;;;;;21.98;31.86;94932.34;6108123;19;1066;-60
2022/12/08 10:42:11;;;;;;;;;;;;;;;22.03;31.81;94929.81;6106844;19;1385;-60
2022/12/08 10:44:14;;;;;;;;;;;;;;;22.01;32.42;94931.91;6120443;19;1066;-59
2022/12/08 10:46:20;;;;;;;;;;;;;;;22.02;32.12;94928.97;6120869;19;1029;-59
2022/12/08 10:48:25;;;;;;;;;;;;;;;22.02;32.71;94917.47;6120217;19;991;-61
2022/12/08 10:50:43;;;;;;;;;;;;;;;22.02;32.81;94907.59;6119872;19;1203;-60
2022/12/08 10:52:46;;;;;;;;;;;;;;;22.02;32.71;94912.13;6094170;19;2104;-60
2022/12/08 10:54:56;;;;;;;;;;;;;;;22.00;33.05;94901.66;6119910;19;1865;-60
2022/12/08 10:56:59;;;;;;;;;;;;;;;22.01;33.35;94902.47;6121500;19;1041;-58
2022/12/08 10:59:14;;;;;;;;;;;;;;;22.00;33.30;94906.19;6122106;19;1021;-59
2022/12/08 11:01:20;;;;;;;;;;;;;;;22.03;33.42;94903.06;6120435;19;1065;-59
2022/12/08 11:03:26;;;;;;;;;;;;;;;22.02;33.24;94910.25;6093602;19;1674;-59
2022/12/08 11:05:31;;;;;;;;;;;;;;;22.02;33.31;94904.09;6119161;19;2085;-58
2022/12/08 11:07:35;;;;;;;;;;;;;;;22.01;33.62;94900.59;6120307;19;981;-60
2022/12/08 11:09:45;;;;;;;;;;;;;;;21.93;33.90;94892.03;6120786;19;1272;-58